LFRN/RNS METAR and TAF weather

Enter ICAO airport designator
Station Type Date Time Source
LFRN METAR 2022/01/26 19:30 UTC NOAA

LFRN 261930Z AUTO 33003KT 6000 OVC020 03/02 Q1035 TEMPO 4000 BR BKN008


Station Type Date Time Source
LFRN Decoded METAR 2022/01/26 19:30 UTC NOAA

Rennes, France (LFRN) 48-04N 001-44W 37M
Jan 26, 2022 - 02:30 PM EST / 2022.01.26 1930 UTC
Wind: from the NNW (330 degrees) at 3 MPH (3 KT):0
Visibility: 3 mile(s):0
Sky conditions: overcast
Temperature: 37 F (3 C)
Dew Point: 35 F (2 C)
Relative Humidity: 93%
Pressure (altimeter): 30.56 in. Hg (1035 hPa)
ob: LFRN 261930Z AUTO 33003KT 6000 OVC020 03/02 Q1035 TEMPO 4000 BR BKN008
cycle: 19

Station Type Date Time Source
LFRN TAF 2022/01/26 18:22 UTC NOAA

TAF LFRN 261700Z 2618/2718 VRB04KT 6000 SCT010 OVC020 PROB40
TEMPO 2618/2624 4000 BR BKN008
BECMG 2621/2624 BKN008
TEMPO 2700/2711 2000 BR BKN003 PROB30
TEMPO 2702/2707 0500 FZFG VV///
TEMPO 2716/2718 4000 -DZRA BKN014

Example: see airport list